Time;durP1;ratioP1;P1;durP2;ratioP2;P2;SDS_P1;SDS_P2;PMS_P1;PMS_P2;Temp;Humidity;BMP_temperature;BMP_pressure;BME280_temperature;BME280_humidity;BME280_pressure;Samples;Min_cycle;Max_cycle;Signal;HPM_P1;HPM_P2
2023/12/05 00:01:32;;;;;;;24.57;22.17;;;-0.10;99.90;;;;;;5020193;28;20264;-40
2023/12/05 00:04:01;;;;;;;23.80;21.02;;;-0.10;99.90;;;;;;5020264;28;20183;-39
2023/12/05 00:06:27;;;;;;;26.40;23.70;;;-0.10;99.90;;;;;;5020196;28;20195;-40
2023/12/05 00:08:52;;;;;;;24.37;21.77;;;-0.10;99.90;;;;;;5020119;28;20186;-39
2023/12/05 00:11:18;;;;;;;23.77;21.30;;;-0.10;99.90;;;;;;5020289;28;21032;-40
2023/12/05 00:13:43;;;;;;;24.80;21.70;;;-0.10;99.90;;;;;;5019991;28;20188;-41
2023/12/05 00:16:09;;;;;;;21.93;19.73;;;-0.20;99.90;;;;;;5020054;28;20265;-41
2023/12/05 00:18:36;;;;;;;23.30;20.83;;;-0.10;99.90;;;;;;5019353;28;20907;-51
2023/12/05 00:21:02;;;;;;;23.92;21.35;;;-0.10;99.90;;;;;;5019298;28;20468;-55
2023/12/05 00:23:28;;;;;;;22.67;20.52;;;-0.10;99.90;;;;;;5019814;28;20187;-55
2023/12/05 00:25:54;;;;;;;25.70;21.50;;;-0.10;99.90;;;;;;5020459;28;20679;-54
2023/12/05 00:28:21;;;;;;;23.30;21.00;;;-0.20;99.90;;;;;;5021646;28;20460;-53
2023/12/05 00:30:46;;;;;;;25.95;23.35;;;-0.20;99.90;;;;;;5023371;28;20755;-56
2023/12/05 00:33:12;;;;;;;24.33;21.63;;;-0.20;99.90;;;;;;5023576;28;20193;-49
2023/12/05 00:35:38;;;;;;;23.37;20.77;;;-0.20;99.90;;;;;;5023193;28;20293;-56
2023/12/05 00:38:04;;;;;;;23.33;21.05;;;-0.20;99.90;;;;;;5023558;28;20178;-52
2023/12/05 00:40:30;;;;;;;23.38;21.08;;;-0.10;99.90;;;;;;5022057;28;20664;-52
2023/12/05 00:42:57;;;;;;;22.33;20.20;;;-0.20;99.90;;;;;;5023512;28;20186;-57
2023/12/05 00:45:24;;;;;;;23.95;21.23;;;-0.30;99.90;;;;;;5023200;28;20201;-54
2023/12/05 00:47:51;;;;;;;23.38;21.13;;;-0.20;1.00;;;;;;5023181;28;20183;-53
2023/12/05 00:50:16;;;;;;;25.38;22.67;;;-0.30;1.00;;;;;;5021584;28;20998;-56
2023/12/05 00:52:42;;;;;;;23.97;21.67;;;-0.30;1.00;;;;;;5020499;28;20197;-52
2023/12/05 00:55:08;;;;;;;24.58;22.08;;;-0.30;1.00;;;;;;5022824;28;20192;-49
2023/12/05 00:57:34;;;;;;;25.83;23.17;;;-0.20;1.00;;;;;;5023109;28;20627;-51
2023/12/05 00:59:59;;;;;;;24.60;21.60;;;-0.20;1.00;;;;;;5022948;28;20981;-55
2023/12/05 01:02:25;;;;;;;23.23;20.83;;;-0.30;1.00;;;;;;5023128;28;20186;-50
2023/12/05 01:04:51;;;;;;;23.63;21.10;;;-0.30;1.00;;;;;;5022956;28;20186;-55
2023/12/05 01:07:17;;;;;;;23.80;21.40;;;-0.20;1.00;;;;;;5022476;28;20266;-54
2023/12/05 01:09:43;;;;;;;24.27;21.33;;;-0.30;1.00;;;;;;5022574;28;20457;-57
2023/12/05 01:12:11;;;;;;;24.00;21.50;;;-0.20;1.00;;;;;;5022495;28;20703;-56
2023/12/05 01:14:37;;;;;;;24.10;20.73;;;-0.20;1.00;;;;;;5022614;28;20553;-57
2023/12/05 01:17:03;;;;;;;24.50;21.03;;;-0.20;1.00;;;;;;5022696;28;20261;-54
2023/12/05 01:19:29;;;;;;;25.38;21.70;;;-0.20;1.00;;;;;;5020732;28;20491;-55
2023/12/05 01:21:55;;;;;;;23.37;21.03;;;-0.20;1.00;;;;;;5022059;28;20191;-56
2023/12/05 01:24:21;;;;;;;24.13;21.67;;;-0.20;1.00;;;;;;5022426;28;20422;-55
2023/12/05 01:26:46;;;;;;;26.53;23.30;;;-0.20;1.00;;;;;;5022078;28;20200;-54
2023/12/05 01:29:12;;;;;;;25.40;22.70;;;-0.20;99.90;;;;;;5022223;28;20425;-49
2023/12/05 01:31:37;;;;;;;24.77;21.53;;;-0.20;99.90;;;;;;5020668;28;20187;-55
2023/12/05 01:34:03;;;;;;;24.70;22.27;;;-0.20;99.90;;;;;;5022181;28;20186;-53
2023/12/05 01:36:30;;;;;;;24.07;21.47;;;-0.20;99.90;;;;;;5022403;28;20228;-55
2023/12/05 01:38:56;;;;;;;26.40;23.65;;;-0.10;99.90;;;;;;5020700;28;20201;-55
2023/12/05 01:41:22;;;;;;;25.33;22.60;;;-0.20;99.90;;;;;;5021906;28;20206;-54
2023/12/05 01:43:49;;;;;;;24.20;21.33;;;-0.20;99.90;;;;;;5021293;28;20190;-54
2023/12/05 01:46:15;;;;;;;24.40;21.90;;;-0.20;99.90;;;;;;5021034;28;20187;-51
2023/12/05 01:48:44;;;;;;;24.48;21.70;;;-0.20;99.90;;;;;;5022249;28;20186;-56
2023/12/05 01:51:11;;;;;;;24.92;22.30;;;-0.10;1.00;;;;;;5020184;28;20187;-53
2023/12/05 01:53:39;;;;;;;25.33;22.77;;;-0.20;99.90;;;;;;5020145;28;20190;-57
2023/12/05 01:56:06;;;;;;;24.50;21.25;;;-0.20;99.90;;;;;;5021532;28;20296;-52
2023/12/05 01:58:34;;;;;;;23.48;20.98;;;-0.20;1.00;;;;;;5021836;28;21291;-56
2023/12/05 02:01:01;;;;;;;24.88;22.23;;;-0.20;99.90;;;;;;5021199;28;20218;-52
2023/12/05 02:03:27;;;;;;;22.98;20.60;;;-0.20;99.90;;;;;;5021859;28;20182;-55
2023/12/05 02:05:54;;;;;;;23.40;20.88;;;-0.20;99.90;;;;;;5021472;28;20188;-51
2023/12/05 02:08:22;;;;;;;24.85;20.92;;;-0.10;99.90;;;;;;5021909;28;20201;-54
2023/12/05 02:10:47;;;;;;;24.25;21.30;;;-0.20;99.90;;;;;;5021673;28;20185;-54
2023/12/05 02:13:13;;;;;;;23.07;20.73;;;-0.10;99.90;;;;;;5021400;28;20663;-54
2023/12/05 02:15:39;;;;;;;22.60;20.43;;;-0.20;99.90;;;;;;5020987;28;20258;-55
2023/12/05 02:18:17;;;;;;;22.70;20.40;;;-0.10;99.90;;;;;;5020395;28;20273;-40
2023/12/05 02:20:59;;;;;;;22.63;20.42;;;-0.10;99.90;;;;;;5020833;28;21050;-40
2023/12/05 02:23:46;;;;;;;20.90;18.80;;;-0.10;99.90;;;;;;5021533;28;20174;-40
2023/12/05 02:26:35;;;;;;;23.33;20.52;;;-0.10;99.90;;;;;;5022083;28;20198;-39
2023/12/05 02:29:01;;;;;;;23.70;21.50;;;-0.20;99.90;;;;;;5020707;28;20185;-39
2023/12/05 02:31:27;;;;;;;23.00;20.60;;;-0.20;99.90;;;;;;5019745;28;20198;-39
2023/12/05 02:33:53;;;;;;;23.53;21.23;;;-0.10;99.90;;;;;;5021568;28;20198;-39
2023/12/05 02:36:50;;;;;;;21.13;19.33;;;-0.20;99.90;;;;;;5021031;28;20268;-39
2023/12/05 02:39:45;;;;;;;21.05;19.05;;;-0.10;99.90;;;;;;5020556;28;20178;-39
2023/12/05 02:42:13;;;;;;;21.98;19.88;;;-0.10;99.90;;;;;;5020823;28;20175;-40
2023/12/05 02:44:47;;;;;;;22.48;20.08;;;-0.10;99.90;;;;;;5020010;28;20913;-39
2023/12/05 02:47:15;;;;;;;21.80;19.50;;;-0.20;99.90;;;;;;5019509;28;20173;-43
2023/12/05 02:49:41;;;;;;;20.77;18.80;;;-0.20;99.90;;;;;;5020383;28;20183;-40
2023/12/05 02:52:07;;;;;;;21.53;19.27;;;-0.10;99.90;;;;;;5020767;28;20224;-39
2023/12/05 02:54:33;;;;;;;21.13;18.93;;;-0.20;99.90;;;;;;5020896;28;20431;-39
2023/12/05 02:56:58;;;;;;;20.80;18.80;;;-0.20;99.50;;;;;;5020735;28;20272;-39
2023/12/05 02:59:25;;;;;;;22.30;20.20;;;-0.10;95.50;;;;;;5020733;28;20202;-39
2023/12/05 03:01:51;;;;;;;21.10;18.95;;;-0.20;99.90;;;;;;5020452;28;20204;-39
2023/12/05 03:04:17;;;;;;;22.03;19.47;;;-0.10;99.90;;;;;;5019802;28;20309;-40
2023/12/05 03:06:43;;;;;;;21.15;19.15;;;-0.10;99.90;;;;;;5018886;28;20471;-40
2023/12/05 03:09:09;;;;;;;21.15;19.15;;;-0.10;99.90;;;;;;5020521;28;20186;-40
2023/12/05 03:11:35;;;;;;;20.23;18.43;;;-0.10;99.90;;;;;;5020898;28;20182;-40
2023/12/05 03:14:03;;;;;;;21.55;19.30;;;0.00;99.90;;;;;;5020103;28;21334;-39
2023/12/05 03:16:28;;;;;;;22.30;19.85;;;-0.10;99.90;;;;;;5020817;28;20336;-39
2023/12/05 03:18:55;;;;;;;21.80;19.63;;;0.00;99.90;;;;;;5021132;28;20353;-40
2023/12/05 03:21:20;;;;;;;21.65;19.15;;;-0.10;99.90;;;;;;5020101;28;20225;-40
2023/12/05 03:23:46;;;;;;;23.13;20.73;;;-0.10;99.90;;;;;;5020246;28;20183;-41
2023/12/05 03:26:22;;;;;;;20.87;18.83;;;-0.10;99.90;;;;;;5021038;28;20187;-40
2023/12/05 03:28:49;;;;;;;22.08;19.95;;;-0.20;99.90;;;;;;5020019;28;20170;-40
2023/12/05 03:31:15;;;;;;;22.55;20.30;;;-0.20;99.90;;;;;;5020230;28;20194;-39
2023/12/05 03:33:41;;;;;;;21.95;19.55;;;-0.20;99.90;;;;;;5020491;28;20711;-40
2023/12/05 03:36:07;;;;;;;22.80;20.40;;;-0.20;99.90;;;;;;5020094;28;20191;-39
2023/12/05 03:38:33;;;;;;;23.17;20.90;;;-0.10;99.90;;;;;;5018834;28;20187;-40
2023/12/05 03:40:59;;;;;;;22.33;20.07;;;-0.10;99.90;;;;;;5019872;28;20287;-54
2023/12/05 03:43:24;;;;;;;23.93;21.43;;;-0.10;99.90;;;;;;5018121;28;20511;-54
2023/12/05 03:45:51;;;;;;;22.97;19.47;;;-0.10;99.90;;;;;;5020543;28;20191;-52
2023/12/05 03:48:17;;;;;;;20.75;18.75;;;-0.10;99.90;;;;;;5019422;28;20223;-55
2023/12/05 03:50:42;;;;;;;20.50;18.30;;;-0.10;99.90;;;;;;5019086;28;20202;-50
2023/12/05 03:53:08;;;;;;;20.83;18.83;;;-0.10;99.90;;;;;;5020068;28;20186;-54
2023/12/05 03:55:34;;;;;;;22.37;19.60;;;-0.10;99.90;;;;;;5019958;28;20252;-55
2023/12/05 03:58:00;;;;;;;21.60;19.33;;;0.00;99.90;;;;;;5020295;28;20190;-54
2023/12/05 04:00:26;;;;;;;23.42;19.88;;;-0.10;84.70;;;;;;5020097;28;20669;-53
2023/12/05 04:02:53;;;;;;;21.70;19.50;;;-0.10;74.90;;;;;;5022737;28;20174;-53
2023/12/05 04:05:18;;;;;;;21.77;19.63;;;-0.10;99.90;;;;;;5024124;28;20551;-54
2023/12/05 04:07:46;;;;;;;22.33;19.93;;;0.00;99.90;;;;;;5022573;28;20187;-57
2023/12/05 04:10:12;;;;;;;21.60;19.52;;;-0.10;39.80;;;;;;5023781;28;20194;-54
2023/12/05 04:12:39;;;;;;;22.15;19.85;;;-0.10;30.20;;;;;;5021624;28;20190;-56
2023/12/05 04:15:06;;;;;;;21.70;19.40;;;-0.10;13.50;;;;;;5023767;28;20200;-56
2023/12/05 04:17:32;;;;;;;25.55;22.35;;;-0.10;30.70;;;;;;5023819;28;20277;-53
2023/12/05 04:19:58;;;;;;;21.27;19.07;;;-0.20;1.00;;;;;;5024048;28;20244;-52
2023/12/05 04:22:23;;;;;;;20.80;18.90;;;-0.10;61.90;;;;;;5023558;28;20194;-52
2023/12/05 04:24:49;;;;;;;20.87;18.80;;;-0.10;49.10;;;;;;5023492;28;20528;-54
2023/12/05 04:27:14;;;;;;;20.13;17.97;;;-0.10;13.20;;;;;;5023137;28;20225;-54
2023/12/05 04:29:41;;;;;;;22.33;19.13;;;-0.10;14.60;;;;;;5023399;28;20187;-54
2023/12/05 04:32:06;;;;;;;20.98;18.85;;;-0.20;37.00;;;;;;5022719;28;20208;-54
2023/12/05 04:34:33;;;;;;;19.33;17.47;;;-0.20;48.90;;;;;;5022987;28;20189;-54
2023/12/05 04:36:59;;;;;;;21.40;19.02;;;-0.20;21.60;;;;;;5023538;28;20231;-53
2023/12/05 04:39:24;;;;;;;19.30;17.47;;;-0.20;61.30;;;;;;5023032;28;20194;-56
2023/12/05 04:41:50;;;;;;;21.33;19.07;;;-0.20;49.70;;;;;;5022076;28;20274;-53
2023/12/05 04:44:15;;;;;;;20.50;18.60;;;-0.20;92.70;;;;;;5023211;28;20620;-57
2023/12/05 04:46:41;;;;;;;21.47;19.27;;;-0.20;25.00;;;;;;5022684;28;20189;-54
2023/12/05 04:49:07;;;;;;;21.70;19.13;;;-0.30;30.60;;;;;;5023150;28;20534;-53
2023/12/05 04:51:33;;;;;;;20.83;18.67;;;-0.30;37.60;;;;;;5022809;28;20309;-54
2023/12/05 04:54:00;;;;;;;21.77;19.27;;;-0.30;52.50;;;;;;5022756;28;20943;-54
2023/12/05 04:56:26;;;;;;;20.07;18.20;;;-0.30;56.90;;;;;;5021231;28;20198;-40
2023/12/05 04:58:52;;;;;;;19.83;17.92;;;-0.30;93.30;;;;;;5023013;28;20738;-41
2023/12/05 05:01:17;;;;;;;19.97;17.97;;;-0.30;99.90;;;;;;5022514;28;20225;-40
2023/12/05 05:03:43;;;;;;;21.27;19.07;;;-0.30;99.90;;;;;;5022674;28;20182;-46
2023/12/05 05:06:09;;;;;;;19.80;17.87;;;-0.30;86.70;;;;;;5022889;28;20311;-53
2023/12/05 05:08:35;;;;;;;19.92;17.83;;;-0.30;99.90;;;;;;5022897;28;20171;-56
2023/12/05 05:11:00;;;;;;;20.10;18.20;;;-0.30;99.90;;;;;;5022763;28;20222;-54
2023/12/05 05:13:26;;;;;;;19.00;17.20;;;-0.30;99.80;;;;;;5022885;28;20277;-54
2023/12/05 05:15:52;;;;;;;20.20;18.20;;;-0.30;99.90;;;;;;5022509;28;20190;-52
2023/12/05 05:18:17;;;;;;;20.07;18.07;;;-0.40;99.90;;;;;;5022680;28;20218;-53
2023/12/05 05:20:43;;;;;;;20.10;18.13;;;-0.30;99.90;;;;;;5022721;28;20349;-54
2023/12/05 05:23:09;;;;;;;20.43;18.33;;;-0.40;99.90;;;;;;5021836;28;20674;-55
2023/12/05 05:25:35;;;;;;;19.40;17.45;;;-0.40;99.90;;;;;;5022079;28;20281;-53
2023/12/05 05:28:01;;;;;;;21.70;18.53;;;-0.40;99.90;;;;;;5021963;28;20630;-56
2023/12/05 05:30:27;;;;;;;21.42;18.92;;;-0.30;99.90;;;;;;5021853;28;21551;-62
2023/12/05 05:32:52;;;;;;;20.87;18.80;;;-0.30;99.90;;;;;;5022186;28;20196;-53
2023/12/05 05:35:18;;;;;;;19.67;17.77;;;-0.30;99.90;;;;;;5022019;28;20579;-51
2023/12/05 05:37:43;;;;;;;18.63;16.73;;;-0.30;99.90;;;;;;5022267;28;20194;-53
2023/12/05 05:40:09;;;;;;;20.80;18.70;;;-0.20;99.90;;;;;;5021848;28;20217;-39
2023/12/05 05:42:35;;;;;;;19.17;17.45;;;-0.20;99.90;;;;;;5021276;28;20214;-40
2023/12/05 05:45:01;;;;;;;19.23;17.50;;;-0.20;99.90;;;;;;5021788;28;20636;-39
2023/12/05 05:47:26;;;;;;;20.60;18.47;;;-0.20;99.90;;;;;;5021706;28;20175;-39
2023/12/05 05:49:52;;;;;;;20.40;17.60;;;-0.20;99.90;;;;;;5022260;28;20198;-40
2023/12/05 05:52:17;;;;;;;20.20;18.40;;;-0.20;99.90;;;;;;5021434;28;20265;-40
2023/12/05 05:54:43;;;;;;;19.67;17.47;;;-0.10;99.90;;;;;;5020142;28;20202;-40
2023/12/05 05:57:09;;;;;;;20.27;17.70;;;-0.10;93.90;;;;;;5018719;28;20261;-41
2023/12/05 05:59:34;;;;;;;19.53;17.43;;;-0.10;99.90;;;;;;5021098;28;20213;-41
2023/12/05 06:02:00;;;;;;;21.87;17.97;;;0.00;46.10;;;;;;5020665;28;20201;-40
2023/12/05 06:04:25;;;;;;;21.30;19.10;;;0.00;62.90;;;;;;5021118;28;20189;-53
2023/12/05 06:06:51;;;;;;;20.40;18.07;;;-0.10;1.00;;;;;;5021651;28;20502;-50
2023/12/05 06:09:17;;;;;;;19.30;17.30;;;0.00;64.00;;;;;;5021045;28;20182;-52
2023/12/05 06:11:43;;;;;;;20.70;18.70;;;0.00;1.00;;;;;;5021578;28;20194;-52
2023/12/05 06:14:08;;;;;;;20.63;18.52;;;0.00;1.00;;;;;;5019757;28;20570;-56
2023/12/05 06:16:34;;;;;;;18.57;16.53;;;0.10;1.00;;;;;;5021424;28;20252;-52
2023/12/05 06:18:59;;;;;;;19.90;18.00;;;0.00;1.00;;;;;;5020462;28;20926;-52
2023/12/05 06:21:26;;;;;;;19.03;17.33;;;0.00;1.00;;;;;;5021009;28;20241;-52
2023/12/05 06:23:54;;;;;;;19.67;17.98;;;0.10;1.00;;;;;;5021516;28;20182;-55
2023/12/05 06:26:19;;;;;;;20.48;18.40;;;0.10;1.00;;;;;;5020860;28;20177;-54
2023/12/05 06:28:45;;;;;;;20.10;18.10;;;0.10;1.00;;;;;;5020914;28;20183;-50
2023/12/05 06:31:10;;;;;;;20.13;18.33;;;0.10;1.00;;;;;;5020956;28;20193;-51
2023/12/05 06:33:36;;;;;;;19.83;17.97;;;0.10;1.00;;;;;;5021436;28;20191;-54
2023/12/05 06:36:02;;;;;;;18.90;17.27;;;0.00;1.00;;;;;;5020717;28;20178;-54
2023/12/05 06:38:27;;;;;;;20.60;18.53;;;-0.10;1.00;;;;;;5020199;28;20198;-52
2023/12/05 06:40:53;;;;;;;21.23;18.30;;;-0.20;16.70;;;;;;5021006;28;20457;-56
2023/12/05 06:43:19;;;;;;;17.97;16.17;;;-0.20;99.90;;;;;;5020849;28;20661;-51
2023/12/05 06:45:44;;;;;;;20.17;18.07;;;-0.10;99.90;;;;;;5020670;28;20178;-50
2023/12/05 06:48:10;;;;;;;19.97;17.87;;;-0.10;99.90;;;;;;5020255;28;20178;-40
2023/12/05 06:50:36;;;;;;;18.47;16.77;;;-0.10;99.90;;;;;;5017798;28;20197;-40
2023/12/05 06:53:01;;;;;;;19.40;17.37;;;-0.10;99.90;;;;;;5017727;28;20186;-40
2023/12/05 06:55:27;;;;;;;20.70;18.63;;;-0.10;1.00;;;;;;5016672;28;20179;-38
2023/12/05 06:57:53;;;;;;;20.30;18.30;;;-0.10;1.00;;;;;;5019396;28;20229;-39
2023/12/05 07:00:19;;;;;;;21.33;18.00;;;0.00;1.00;;;;;;5019131;28;20313;-39
2023/12/05 07:02:44;;;;;;;21.75;19.38;;;0.00;1.00;;;;;;5019409;28;21012;-39
2023/12/05 07:05:10;;;;;;;19.00;17.07;;;-0.10;1.00;;;;;;5018845;28;20178;-41
2023/12/05 07:07:36;;;;;;;20.30;18.40;;;0.00;1.00;;;;;;5017133;28;20653;-39
2023/12/05 07:10:02;;;;;;;21.70;19.60;;;0.00;1.00;;;;;;5018274;28;20213;-40
2023/12/05 07:12:28;;;;;;;19.80;17.80;;;0.00;1.00;;;;;;5016983;28;20667;-39
2023/12/05 07:14:54;;;;;;;19.77;17.88;;;0.00;1.00;;;;;;5018621;28;20637;-39
2023/12/05 07:17:20;;;;;;;20.90;18.80;;;0.10;1.00;;;;;;5018872;28;20190;-39
2023/12/05 07:19:45;;;;;;;23.03;17.73;;;0.10;99.90;;;;;;5018703;28;20563;-50
2023/12/05 07:22:11;;;;;;;20.70;18.70;;;0.10;99.90;;;;;;5019183;28;20178;-55
2023/12/05 07:24:38;;;;;;;26.00;20.52;;;0.10;99.90;;;;;;5019864;28;20182;-53
2023/12/05 07:27:03;;;;;;;22.52;18.85;;;0.10;99.90;;;;;;5019461;28;20405;-52
2023/12/05 07:29:29;;;;;;;21.03;18.93;;;0.20;99.90;;;;;;5019550;28;20617;-53
2023/12/05 07:31:55;;;;;;;20.97;19.00;;;0.20;66.80;;;;;;5019525;28;20412;-50
2023/12/05 07:34:21;;;;;;;20.80;18.60;;;0.30;1.00;;;;;;5019617;28;20182;-55
2023/12/05 07:36:46;;;;;;;19.70;17.80;;;0.20;1.00;;;;;;5021174;28;20182;-53
2023/12/05 07:39:15;;;;;;;20.83;18.83;;;0.20;1.00;;;;;;5022126;28;20183;-50
2023/12/05 07:41:41;;;;;;;18.67;16.80;;;0.30;1.00;;;;;;5023020;28;20242;-51
2023/12/05 07:44:07;;;;;;;21.27;19.23;;;0.40;1.00;;;;;;5023346;28;20217;-56
2023/12/05 07:46:33;;;;;;;20.63;18.58;;;0.40;1.00;;;;;;5023394;28;20686;-53
2023/12/05 07:48:59;;;;;;;20.83;18.60;;;0.30;1.00;;;;;;5021152;28;20196;-53
2023/12/05 07:51:24;;;;;;;20.57;18.47;;;0.40;1.00;;;;;;5023149;28;20183;-54
2023/12/05 07:53:50;;;;;;;20.30;18.30;;;0.40;1.00;;;;;;5023120;28;20210;-52
2023/12/05 07:56:16;;;;;;;19.90;17.83;;;0.40;1.00;;;;;;5023445;28;20421;-55
2023/12/05 07:58:42;;;;;;;21.10;19.00;;;0.30;1.00;;;;;;5022836;28;20743;-55
2023/12/05 08:01:08;;;;;;;19.50;17.63;;;0.40;1.00;;;;;;5023761;28;20200;-50
2023/12/05 08:03:34;;;;;;;20.87;18.57;;;0.50;1.00;;;;;;5022730;28;20186;-49
2023/12/05 08:06:01;;;;;;;23.35;18.25;;;0.40;1.00;;;;;;5023101;28;20178;-40
2023/12/05 08:08:30;;;;;;;18.08;16.38;;;0.30;86.00;;;;;;5016795;28;20183;-40
2023/12/05 08:10:56;;;;;;;20.80;18.58;;;0.40;1.00;;;;;;5023156;28;20193;-40
2023/12/05 08:13:22;;;;;;;20.75;18.63;;;0.40;3.40;;;;;;5022657;28;20182;-40
2023/12/05 08:15:48;;;;;;;20.60;17.67;;;0.30;1.00;;;;;;5022926;28;20201;-40
2023/12/05 08:18:13;;;;;;;20.40;18.20;;;0.20;99.90;;;;;;5023215;28;20641;-41
2023/12/05 08:20:39;;;;;;;19.60;17.80;;;0.20;99.90;;;;;;5021045;28;20594;-40
2023/12/05 08:23:04;;;;;;;21.97;19.67;;;0.20;1.00;;;;;;5023231;28;20488;-40
2023/12/05 08:25:30;;;;;;;19.40;17.40;;;0.20;1.00;;;;;;5023009;28;20452;-40
2023/12/05 08:27:55;;;;;;;21.43;18.50;;;0.30;1.00;;;;;;5022579;28;20659;-39
2023/12/05 08:30:21;;;;;;;19.60;17.80;;;0.20;1.00;;;;;;5022633;28;20194;-53
2023/12/05 08:32:47;;;;;;;21.17;19.17;;;0.20;1.00;;;;;;5022869;28;20186;-52
2023/12/05 08:35:12;;;;;;;19.77;17.80;;;0.20;1.00;;;;;;5022894;28;20197;-56
2023/12/05 08:37:38;;;;;;;21.43;18.80;;;0.20;99.90;;;;;;5021066;28;20191;-55
2023/12/05 08:40:04;;;;;;;20.37;18.37;;;0.20;1.00;;;;;;5022666;28;20214;-40
2023/12/05 08:42:29;;;;;;;21.20;19.02;;;0.10;1.00;;;;;;5022161;28;20461;-48
2023/12/05 08:44:55;;;;;;;24.17;21.60;;;0.10;1.00;;;;;;5021550;28;20190;-51
2023/12/05 08:47:21;;;;;;;21.73;19.37;;;0.20;1.00;;;;;;5021852;28;20694;-49
2023/12/05 08:49:46;;;;;;;21.73;19.73;;;0.10;99.90;;;;;;5021751;28;20179;-53
2023/12/05 08:52:12;;;;;;;20.97;18.83;;;0.10;1.00;;;;;;5022175;28;20715;-51
2023/12/05 08:54:38;;;;;;;22.60;20.30;;;0.20;1.00;;;;;;5022048;28;20221;-53
2023/12/05 08:57:04;;;;;;;22.73;20.35;;;0.20;1.00;;;;;;5022231;28;20195;-40
2023/12/05 08:59:29;;;;;;;22.93;20.53;;;0.30;1.00;;;;;;5021788;28;20216;-40
2023/12/05 09:01:55;;;;;;;22.87;20.47;;;0.20;99.90;;;;;;5022446;28;20579;-40
2023/12/05 09:04:20;;;;;;;27.03;19.90;;;0.20;99.90;;;;;;5021758;28;20190;-41
2023/12/05 09:06:46;;;;;;;25.20;20.10;;;0.30;1.00;;;;;;5021059;28;20648;-40
2023/12/05 09:09:11;;;;;;;22.60;20.20;;;0.40;1.00;;;;;;5021845;28;20228;-40
2023/12/05 09:11:38;;;;;;;21.67;19.33;;;0.40;99.90;;;;;;5021114;28;20277;-40
2023/12/05 09:14:05;;;;;;;22.10;19.90;;;0.50;1.00;;;;;;5022265;28;20217;-40
2023/12/05 09:16:31;;;;;;;23.58;21.17;;;0.50;99.90;;;;;;5018626;28;20548;-40
2023/12/05 09:18:57;;;;;;;22.63;20.20;;;0.60;1.00;;;;;;5021417;28;20630;-40
2023/12/05 09:21:22;;;;;;;22.37;20.13;;;0.60;99.90;;;;;;5020603;28;20289;-40
2023/12/05 09:23:48;;;;;;;21.73;19.70;;;0.60;1.00;;;;;;5018991;28;20190;-39
2023/12/05 09:26:14;;;;;;;24.73;20.73;;;0.70;1.00;;;;;;5021494;28;20182;-39
2023/12/05 09:28:40;;;;;;;22.60;20.23;;;0.70;99.90;;;;;;5021477;28;20167;-40
2023/12/05 09:31:06;;;;;;;23.20;20.80;;;0.80;1.00;;;;;;5021183;28;20198;-39
2023/12/05 09:33:32;;;;;;;22.30;20.17;;;0.80;1.00;;;;;;5021403;28;20675;-39
2023/12/05 09:35:58;;;;;;;22.43;20.10;;;0.80;1.00;;;;;;5021267;28;20437;-39
2023/12/05 09:38:24;;;;;;;22.27;20.20;;;0.80;99.90;;;;;;5021845;28;20202;-39
2023/12/05 09:40:51;;;;;;;22.40;20.10;;;0.70;1.00;;;;;;5021259;28;20477;-39
2023/12/05 09:43:21;;;;;;;22.42;20.15;;;0.70;99.90;;;;;;5021285;28;20648;-39
2023/12/05 09:45:50;;;;;;;20.75;18.70;;;0.70;99.90;;;;;;5020837;28;20210;-39
2023/12/05 09:48:18;;;;;;;22.17;19.73;;;0.60;99.90;;;;;;5021077;28;20259;-38
2023/12/05 09:50:44;;;;;;;22.88;20.33;;;0.60;1.00;;;;;;5020884;28;20190;-39
2023/12/05 09:53:10;;;;;;;22.60;20.30;;;0.70;1.00;;;;;;5019594;28;20556;-40
2023/12/05 09:55:39;;;;;;;22.75;20.50;;;0.60;99.90;;;;;;5020838;28;20186;-39
2023/12/05 09:58:06;;;;;;;23.00;20.60;;;0.60;99.90;;;;;;5020836;28;20226;-38
2023/12/05 10:00:31;;;;;;;21.02;18.92;;;0.70;99.90;;;;;;5019689;28;20206;-39
2023/12/05 10:03:01;;;;;;;24.03;21.00;;;0.80;99.90;;;;;;5020929;28;20677;-39
2023/12/05 10:05:33;;;;;;;22.98;20.58;;;0.80;99.90;;;;;;5018053;28;20175;-39
2023/12/05 10:08:00;;;;;;;22.10;19.77;;;0.80;99.90;;;;;;5019521;28;20190;-39
2023/12/05 10:10:28;;;;;;;23.77;21.27;;;0.70;1.00;;;;;;5020484;28;20277;-39
2023/12/05 10:12:55;;;;;;;22.77;20.40;;;0.70;1.00;;;;;;5020704;28;20197;-39
2023/12/05 10:15:22;;;;;;;22.98;20.33;;;0.80;1.00;;;;;;5020717;28;20496;-40
2023/12/05 10:17:48;;;;;;;24.33;21.73;;;0.70;1.00;;;;;;5020636;28;20205;-39
2023/12/05 10:20:14;;;;;;;24.17;20.40;;;0.80;1.00;;;;;;5020251;28;20658;-39
2023/12/05 10:22:40;;;;;;;22.67;20.10;;;0.80;1.00;;;;;;5019587;28;20178;-39
2023/12/05 10:25:11;;;;;;;24.67;20.98;;;0.80;1.00;;;;;;5019876;28;20179;-40
2023/12/05 10:27:36;;;;;;;24.40;22.00;;;0.80;1.00;;;;;;5020245;28;20195;-40
2023/12/05 10:30:02;;;;;;;25.03;22.37;;;0.90;1.00;;;;;;5020152;28;20325;-39
2023/12/05 10:32:28;;;;;;;22.37;20.10;;;1.00;99.90;;;;;;5020408;28;20183;-39
2023/12/05 10:34:56;;;;;;;25.90;21.63;;;1.00;92.30;;;;;;5020915;28;20919;-40
2023/12/05 10:37:27;;;;;;;24.75;21.50;;;1.00;1.00;;;;;;5020409;28;20187;-39
2023/12/05 10:39:55;;;;;;;22.65;20.25;;;1.00;1.00;;;;;;5020056;28;20677;-39
2023/12/05 10:42:25;;;;;;;24.10;21.60;;;1.10;1.00;;;;;;5019942;28;20180;-39
2023/12/05 10:44:50;;;;;;;23.20;20.90;;;1.10;99.90;;;;;;5020325;28;20187;-39
2023/12/05 10:47:16;;;;;;;24.33;22.17;;;1.20;1.00;;;;;;5020453;28;20198;-39
2023/12/05 10:49:43;;;;;;;24.77;22.37;;;1.20;99.90;;;;;;5020835;28;20216;-39
2023/12/05 10:52:11;;;;;;;24.55;22.17;;;1.20;1.00;;;;;;5019526;28;20428;-40
2023/12/05 10:54:38;;;;;;;22.80;19.60;;;1.30;1.00;;;;;;5019486;28;20190;-39
2023/12/05 10:57:09;;;;;;;23.50;21.00;;;1.30;99.90;;;;;;5019897;28;20211;-39
2023/12/05 10:59:36;;;;;;;23.83;21.27;;;1.30;99.90;;;;;;5020093;28;20218;-39
2023/12/05 11:02:10;;;;;;;23.00;20.55;;;1.40;72.90;;;;;;5019681;28;20180;-40
2023/12/05 11:04:37;;;;;;;25.10;20.48;;;1.40;1.00;;;;;;5019677;28;20183;-39
2023/12/05 11:07:03;;;;;;;25.15;21.98;;;1.40;99.90;;;;;;5019982;28;20176;-40
2023/12/05 11:09:29;;;;;;;23.33;20.47;;;1.40;99.90;;;;;;5017971;28;20524;-40
2023/12/05 11:11:56;;;;;;;23.00;20.80;;;1.60;1.00;;;;;;5019068;28;20189;-40
2023/12/05 11:14:24;;;;;;;22.88;20.48;;;1.70;1.00;;;;;;5018527;28;20194;-40
2023/12/05 11:16:52;;;;;;;23.05;20.65;;;1.70;1.00;;;;;;5019811;28;20188;-39
2023/12/05 11:19:38;;;;;;;22.38;20.02;;;1.70;99.90;;;;;;5016955;28;20238;-40
2023/12/05 11:22:26;;;;;;;21.88;19.58;;;1.80;99.90;;;;;;5019669;28;20209;-40
2023/12/05 11:25:09;;;;;;;22.67;20.08;;;1.90;99.90;;;;;;5019396;28;20187;-40
2023/12/05 11:28:08;;;;;;;24.25;21.35;;;1.90;1.00;;;;;;5019772;28;20215;-39
2023/12/05 11:30:56;;;;;;;23.60;20.60;;;2.00;1.00;;;;;;5019529;28;20669;-40
2023/12/05 11:33:36;;;;;;;23.50;20.95;;;2.00;1.00;;;;;;5019374;28;20199;-40
2023/12/05 11:36:09;;;;;;;22.55;20.10;;;2.20;1.00;;;;;;5018227;28;20199;-40
2023/12/05 11:38:34;;;;;;;26.42;23.70;;;2.30;1.00;;;;;;5019285;28;20183;-40
2023/12/05 11:41:22;;;;;;;24.30;21.77;;;2.40;99.90;;;;;;5018335;28;20215;-40
2023/12/05 11:44:13;;;;;;;23.55;21.15;;;2.40;99.90;;;;;;5018005;28;20499;-40
2023/12/05 11:46:45;;;;;;;24.65;20.75;;;2.50;99.90;;;;;;5019431;28;20177;-40
2023/12/05 11:49:11;;;;;;;22.33;20.17;;;2.60;82.90;;;;;;5018929;28;20385;-41
2023/12/05 11:51:37;;;;;;;23.57;21.50;;;2.50;99.90;;;;;;5019235;28;20189;-44
2023/12/05 11:54:05;;;;;;;24.57;21.93;;;2.40;99.90;;;;;;5019190;28;20271;-41
2023/12/05 11:56:31;;;;;;;24.58;22.13;;;2.50;99.90;;;;;;5019118;28;20420;-40
2023/12/05 11:59:16;;;;;;;23.17;20.33;;;2.70;99.90;;;;;;5019204;28;20556;-41
2023/12/05 12:01:42;;;;;;;23.75;21.33;;;2.70;99.90;;;;;;5018969;28;20524;-40
2023/12/05 12:04:21;;;;;;;23.02;20.65;;;2.60;1.00;;;;;;5018900;28;20178;-49
2023/12/05 12:06:48;;;;;;;23.55;21.27;;;2.60;14.40;;;;;;5019065;28;20191;-51
2023/12/05 12:09:13;;;;;;;24.95;22.35;;;2.70;34.60;;;;;;5019600;28;20239;-56
2023/12/05 12:11:39;;;;;;;24.23;21.83;;;2.70;42.70;;;;;;5018733;28;20273;-44
2023/12/05 12:14:15;;;;;;;24.67;22.00;;;2.70;99.90;;;;;;5016743;28;20213;-40
2023/12/05 12:16:41;;;;;;;25.05;22.48;;;2.80;72.50;;;;;;5019129;28;20181;-40
2023/12/05 12:19:12;;;;;;;24.77;22.27;;;3.10;1.00;;;;;;5017997;28;20592;-43
2023/12/05 12:21:40;;;;;;;25.55;23.15;;;3.50;1.00;;;;;;5018704;28;20195;-41
2023/12/05 12:24:08;;;;;;;24.52;22.02;;;3.70;1.00;;;;;;5021186;28;20288;-40
2023/12/05 12:26:33;;;;;;;25.55;22.90;;;3.60;99.90;;;;;;5021636;28;20198;-55
2023/12/05 12:29:09;;;;;;;24.90;22.20;;;3.50;99.90;;;;;;5020816;28;20194;-51
2023/12/05 12:31:35;;;;;;;24.92;22.33;;;3.20;1.00;;;;;;5022423;28;20419;-51
2023/12/05 12:34:07;;;;;;;26.38;23.55;;;3.10;99.90;;;;;;5022676;28;20189;-55
2023/12/05 12:36:34;;;;;;;25.75;23.20;;;3.10;1.00;;;;;;5022300;28;20216;-54